createdAt,value
2023-01-29T00:00:16.108Z,21.85
2023-01-29T00:01:18.149Z,21.78
2023-01-29T00:02:20.050Z,21.89
2023-01-29T00:03:22.113Z,21.53
2023-01-29T00:04:24.293Z,21.55
2023-01-29T00:05:28.215Z,21.56
2023-01-29T00:06:30.789Z,21.88
2023-01-29T00:07:32.872Z,21.80
2023-01-29T00:08:36.363Z,21.79
2023-01-29T00:09:38.288Z,21.91
2023-01-29T00:10:40.063Z,21.64
2023-01-29T00:11:41.946Z,21.95
2023-01-29T00:12:43.761Z,21.86
2023-01-29T00:13:45.658Z,21.64
2023-01-29T00:14:47.486Z,21.91
2023-01-29T00:15:56.694Z,21.87
2023-01-29T00:16:58.624Z,21.90
2023-01-29T00:18:00.424Z,21.81
2023-01-29T00:19:02.945Z,22.00
2023-01-29T00:20:05.368Z,21.80
2023-01-29T00:21:16.469Z,21.56
2023-01-29T00:22:18.288Z,21.82
2023-01-29T00:23:20.513Z,21.72
2023-01-29T00:24:22.695Z,21.93
2023-01-29T00:25:25.135Z,21.93
2023-01-29T00:26:27.672Z,21.65
2023-01-29T00:27:29.893Z,22.43
2023-01-29T00:28:31.793Z,21.76
2023-01-29T00:29:33.584Z,21.76
2023-01-29T00:30:36.903Z,21.68
2023-01-29T00:31:38.896Z,22.06
2023-01-29T00:32:42.618Z,21.76
2023-01-29T00:33:44.750Z,22.02
2023-01-29T00:34:46.748Z,22.07
2023-01-29T00:35:51.307Z,21.72
2023-01-29T00:36:53.081Z,22.00
2023-01-29T00:37:56.107Z,22.09
2023-01-29T00:39:00.734Z,21.95
2023-01-29T00:40:04.524Z,21.92
2023-01-29T00:41:27.321Z,21.93
2023-01-29T00:42:47.724Z,21.76
2023-01-29T00:44:08.454Z,21.66
2023-01-29T00:45:11.780Z,21.77
2023-01-29T00:46:13.695Z,21.94
2023-01-29T00:47:31.151Z,22.14
2023-01-29T00:48:34.327Z,21.95
2023-01-29T00:49:36.104Z,21.99
2023-01-29T00:50:37.956Z,21.83
2023-01-29T00:51:40.919Z,22.08
2023-01-29T00:52:42.976Z,22.13
2023-01-29T00:53:44.756Z,22.09
2023-01-29T00:54:46.612Z,22.06
2023-01-29T00:55:48.441Z,22.20
2023-01-29T00:56:50.284Z,21.87
2023-01-29T00:57:52.356Z,22.26
2023-01-29T00:58:54.586Z,22.05
2023-01-29T00:59:57.283Z,21.92
2023-01-29T01:01:01.320Z,22.21
2023-01-29T01:02:21.811Z,22.21
2023-01-29T01:03:23.641Z,22.07
2023-01-29T01:04:25.530Z,22.03
2023-01-29T01:05:28.139Z,21.82
2023-01-29T01:06:30.031Z,22.20
2023-01-29T01:07:32.161Z,22.12
2023-01-29T01:08:52.531Z,22.28
2023-01-29T01:10:18.183Z,21.93
2023-01-29T01:11:21.503Z,22.04
2023-01-29T01:12:23.538Z,21.88
2023-01-29T01:13:25.464Z,22.02
2023-01-29T01:14:27.304Z,22.04
2023-01-29T01:15:32.595Z,22.06
2023-01-29T01:16:34.403Z,21.96
2023-01-29T01:17:36.503Z,22.21
2023-01-29T01:18:38.640Z,22.06
2023-01-29T01:19:40.480Z,22.28
2023-01-29T01:20:42.483Z,22.09
2023-01-29T01:21:47.052Z,22.10
2023-01-29T01:22:49.643Z,22.54
2023-01-29T01:23:52.236Z,21.94
2023-01-29T01:24:54.297Z,21.71
2023-01-29T01:25:56.383Z,21.91
2023-01-29T01:26:58.224Z,22.05
2023-01-29T01:28:02.877Z,22.25
2023-01-29T01:29:05.302Z,22.08
2023-01-29T01:30:14.776Z,22.02
2023-01-29T01:31:16.941Z,21.79
2023-01-29T01:32:18.971Z,22.27
2023-01-29T01:33:21.166Z,22.00
2023-01-29T01:34:24.061Z,22.25
2023-01-29T01:35:25.889Z,22.24
2023-01-29T01:36:27.718Z,22.32
2023-01-29T01:37:29.587Z,22.03
2023-01-29T01:38:31.372Z,22.02
2023-01-29T01:39:33.208Z,22.19
2023-01-29T01:40:35.297Z,22.01
2023-01-29T01:41:37.122Z,22.31
2023-01-29T01:42:40.470Z,21.95
2023-01-29T01:43:56.128Z,22.01
2023-01-29T01:45:08.199Z,22.15
2023-01-29T01:46:10.370Z,21.82
2023-01-29T01:47:12.481Z,22.05
2023-01-29T01:48:21.550Z,21.98
2023-01-29T01:49:24.572Z,22.08
2023-01-29T01:50:42.812Z,22.25
2023-01-29T01:51:52.649Z,22.09
2023-01-29T01:52:59.910Z,22.26
2023-01-29T01:54:07.788Z,22.27
2023-01-29T01:55:13.993Z,22.21
2023-01-29T01:56:20.147Z,22.27
2023-01-29T01:57:25.080Z,22.20
2023-01-29T01:59:02.591Z,22.17
2023-01-29T02:00:10.262Z,21.96
2023-01-29T02:01:21.393Z,21.85
2023-01-29T02:02:42.531Z,22.15
2023-01-29T02:04:14.932Z,21.96
2023-01-29T02:05:35.059Z,22.09
2023-01-29T02:06:59.096Z,22.07
2023-01-29T02:08:19.503Z,22.12
2023-01-29T02:09:37.175Z,21.92
2023-01-29T02:10:45.016Z,22.08
2023-01-29T02:11:47.070Z,21.99
2023-01-29T02:12:49.390Z,22.31
2023-01-29T02:13:53.689Z,22.25
2023-01-29T02:15:00.906Z,22.22
2023-01-29T02:16:02.804Z,22.24
2023-01-29T02:17:06.061Z,22.08
2023-01-29T02:18:09.227Z,22.15
2023-01-29T02:19:20.922Z,22.04
2023-01-29T02:20:28.875Z,22.29
2023-01-29T02:22:01.282Z,22.19
2023-01-29T02:23:12.292Z,21.89
2023-01-29T02:24:45.549Z,22.16
2023-01-29T02:26:06.098Z,22.17
2023-01-29T02:27:14.207Z,21.97
2023-01-29T02:28:53.955Z,21.91
2023-01-29T02:29:58.731Z,21.79
2023-01-29T02:31:09.569Z,22.08
2023-01-29T02:32:33.132Z,21.86
2023-01-29T02:33:43.643Z,22.13
2023-01-29T02:35:15.477Z,22.06
2023-01-29T02:36:17.291Z,21.92
2023-01-29T02:37:25.775Z,22.21
2023-01-29T02:38:42.351Z,22.20
2023-01-29T02:40:05.206Z,22.20
2023-01-29T02:41:37.351Z,22.21
2023-01-29T02:42:47.116Z,22.29
2023-01-29T02:44:03.647Z,22.24
2023-01-29T02:45:11.674Z,22.05
2023-01-29T02:46:51.302Z,21.96
2023-01-29T02:47:55.763Z,22.16
2023-01-29T02:48:57.534Z,22.22
2023-01-29T02:50:24.272Z,22.15
2023-01-29T02:51:36.798Z,21.94
2023-01-29T02:52:49.778Z,22.28
2023-01-29T02:54:04.481Z,21.74
2023-01-29T02:55:13.219Z,22.17
2023-01-29T02:56:24.460Z,22.21
2023-01-29T02:57:31.858Z,22.17
2023-01-29T02:58:41.987Z,22.18
2023-01-29T02:59:50.129Z,22.05
2023-01-29T03:00:55.498Z,22.24
2023-01-29T03:02:05.039Z,22.27
2023-01-29T03:03:12.668Z,22.16
2023-01-29T03:04:22.783Z,21.92
2023-01-29T03:05:31.110Z,22.13
2023-01-29T03:06:38.433Z,22.19
2023-01-29T03:07:46.471Z,22.27
2023-01-29T03:09:11.283Z,22.13
2023-01-29T03:10:24.056Z,22.16
2023-01-29T03:11:34.137Z,22.32
2023-01-29T03:12:41.107Z,21.95
2023-01-29T03:13:45.836Z,22.32
2023-01-29T03:15:09.687Z,22.29
2023-01-29T03:16:19.324Z,22.28
2023-01-29T03:17:26.000Z,22.28
2023-01-29T03:18:34.076Z,22.22
2023-01-29T03:19:41.839Z,21.99
2023-01-29T03:20:58.596Z,22.22
2023-01-29T03:22:04.663Z,22.23
2023-01-29T03:23:14.523Z,22.31
2023-01-29T03:24:43.706Z,22.09
2023-01-29T03:26:04.374Z,21.92
2023-01-29T03:27:28.495Z,21.79
2023-01-29T03:28:51.874Z,22.21
2023-01-29T03:30:15.339Z,22.03
2023-01-29T03:31:49.641Z,21.95
2023-01-29T03:32:52.310Z,22.10
2023-01-29T03:34:01.147Z,22.23
2023-01-29T03:35:06.802Z,22.18
2023-01-29T03:36:13.447Z,22.31
2023-01-29T03:37:20.334Z,22.12
2023-01-29T03:38:22.248Z,22.05
2023-01-29T03:39:28.524Z,22.14
2023-01-29T03:40:42.423Z,22.17
2023-01-29T03:41:53.304Z,22.21
2023-01-29T03:43:20.888Z,22.06
2023-01-29T03:44:53.330Z,21.93
2023-01-29T03:46:22.426Z,22.15
2023-01-29T03:47:57.971Z,22.05
2023-01-29T03:49:09.039Z,22.12
2023-01-29T03:50:13.509Z,21.97
2023-01-29T03:51:23.833Z,22.16
2023-01-29T03:52:40.606Z,22.21
2023-01-29T03:54:07.660Z,22.28
2023-01-29T03:55:12.163Z,22.28
2023-01-29T03:56:47.860Z,21.92
2023-01-29T03:58:05.839Z,22.14
2023-01-29T03:59:29.776Z,21.84
2023-01-29T04:01:19.484Z,22.07
2023-01-29T04:02:31.356Z,21.89
2023-01-29T04:04:03.647Z,21.99
2023-01-29T04:05:13.888Z,21.95
2023-01-29T04:06:30.032Z,22.21
2023-01-29T04:07:40.129Z,21.93
2023-01-29T04:09:12.243Z,22.15
2023-01-29T04:10:19.753Z,21.93
2023-01-29T04:11:23.500Z,21.97
2023-01-29T04:12:31.864Z,22.10
2023-01-29T04:13:34.417Z,22.36
2023-01-29T04:14:38.251Z,22.10
2023-01-29T04:15:46.827Z,22.35
2023-01-29T04:16:51.966Z,22.48
2023-01-29T04:18:19.756Z,22.18
2023-01-29T04:19:54.175Z,22.21
2023-01-29T04:20:56.535Z,22.20
2023-01-29T04:22:05.854Z,21.93
2023-01-29T04:23:23.519Z,22.60
2023-01-29T04:24:25.935Z,22.19
2023-01-29T04:25:37.868Z,22.52
2023-01-29T04:26:47.326Z,22.20
2023-01-29T04:28:13.443Z,22.32
2023-01-29T04:29:30.847Z,22.37
2023-01-29T04:31:04.122Z,22.24
2023-01-29T04:32:24.875Z,22.44
2023-01-29T04:33:44.583Z,22.50
2023-01-29T04:35:14.210Z,22.18
2023-01-29T04:36:34.501Z,22.20
2023-01-29T04:37:49.507Z,22.31
2023-01-29T04:39:07.378Z,22.44
2023-01-29T04:40:16.536Z,22.35
2023-01-29T04:41:30.017Z,22.39
2023-01-29T04:42:42.056Z,22.27
2023-01-29T04:44:28.595Z,22.56
2023-01-29T04:45:51.929Z,22.25
2023-01-29T04:47:11.900Z,22.60
2023-01-29T04:48:27.978Z,22.32
2023-01-29T04:49:37.368Z,22.38
2023-01-29T04:50:47.259Z,22.55
2023-01-29T04:52:02.706Z,22.71
2023-01-29T04:53:22.962Z,22.54
2023-01-29T04:54:43.207Z,22.40
2023-01-29T04:55:50.889Z,22.67
2023-01-29T04:57:01.915Z,22.63
2023-01-29T04:58:11.426Z,22.71
2023-01-29T04:59:19.114Z,22.47
2023-01-29T05:00:28.816Z,22.23
2023-01-29T05:01:33.358Z,22.89
2023-01-29T05:02:41.062Z,22.56
2023-01-29T05:03:47.657Z,22.55
2023-01-29T05:04:50.814Z,22.55
2023-01-29T05:05:55.858Z,22.61
2023-01-29T05:06:58.906Z,22.60
2023-01-29T05:08:00.800Z,22.92
2023-01-29T05:09:03.044Z,22.47
2023-01-29T05:10:07.114Z,22.94
2023-01-29T05:11:09.371Z,22.87
2023-01-29T05:12:14.412Z,22.89
2023-01-29T05:13:19.171Z,22.94
2023-01-29T05:14:23.295Z,22.85
2023-01-29T05:15:30.528Z,22.74
2023-01-29T05:16:42.186Z,22.79
2023-01-29T05:17:44.225Z,22.82
2023-01-29T05:18:47.075Z,22.84
2023-01-29T05:19:49.171Z,22.72
2023-01-29T05:20:51.760Z,22.66
2023-01-29T05:21:54.791Z,22.75
2023-01-29T05:22:56.602Z,22.88
2023-01-29T05:24:14.358Z,22.65
2023-01-29T05:25:28.580Z,22.76
2023-01-29T05:26:48.980Z,22.64
2023-01-29T05:28:11.699Z,22.54
2023-01-29T05:29:13.539Z,22.66
2023-01-29T05:30:15.848Z,22.41
2023-01-29T05:31:17.929Z,22.67
2023-01-29T05:32:19.755Z,22.60
2023-01-29T05:33:29.801Z,22.70
2023-01-29T05:34:31.654Z,22.83
2023-01-29T05:35:34.034Z,22.72
2023-01-29T05:36:36.155Z,22.79
2023-01-29T05:37:37.973Z,22.50
2023-01-29T05:38:39.728Z,22.80
2023-01-29T05:39:41.514Z,22.85
2023-01-29T05:40:43.820Z,22.58
2023-01-29T05:41:45.776Z,22.88
2023-01-29T05:42:47.768Z,22.92
2023-01-29T05:43:49.528Z,22.74
2023-01-29T05:44:51.336Z,22.65
2023-01-29T05:46:00.650Z,22.55
2023-01-29T05:47:05.076Z,22.59
2023-01-29T05:48:06.873Z,22.56
2023-01-29T05:49:08.645Z,22.61
2023-01-29T05:50:11.209Z,22.63
2023-01-29T05:51:13.076Z,22.67
2023-01-29T05:52:14.884Z,23.05
2023-01-29T05:53:16.788Z,22.61
2023-01-29T05:54:18.672Z,22.60
2023-01-29T05:55:20.488Z,22.75
2023-01-29T05:56:22.328Z,22.67
2023-01-29T05:57:24.091Z,22.68
2023-01-29T05:58:25.846Z,22.69
2023-01-29T05:59:27.744Z,22.63
2023-01-29T06:00:29.603Z,22.72
2023-01-29T06:01:31.465Z,22.85
2023-01-29T06:02:33.445Z,22.62
2023-01-29T06:03:35.391Z,22.79
2023-01-29T06:04:37.400Z,22.47
2023-01-29T06:05:39.755Z,22.85
2023-01-29T06:06:41.550Z,22.73
2023-01-29T06:07:45.490Z,22.71
2023-01-29T06:08:48.018Z,22.61
2023-01-29T06:09:49.909Z,22.84
2023-01-29T06:10:51.776Z,22.58
2023-01-29T06:11:53.553Z,22.89
2023-01-29T06:12:55.300Z,22.48
2023-01-29T06:13:57.047Z,22.81
2023-01-29T06:14:58.911Z,22.82
2023-01-29T06:16:00.790Z,22.85
2023-01-29T06:17:02.681Z,22.60
2023-01-29T06:18:04.589Z,22.59
2023-01-29T06:19:06.465Z,22.63
2023-01-29T06:20:09.207Z,22.82
2023-01-29T06:21:13.454Z,23.01
2023-01-29T06:22:15.351Z,22.68
2023-01-29T06:23:17.478Z,22.43
2023-01-29T06:24:19.753Z,22.79
2023-01-29T06:25:21.694Z,22.50
2023-01-29T06:26:23.477Z,22.69
2023-01-29T06:27:25.519Z,22.77
2023-01-29T06:28:27.300Z,22.75
2023-01-29T06:29:29.072Z,22.12
2023-01-29T06:30:31.948Z,22.47
2023-01-29T06:31:38.743Z,22.37
2023-01-29T06:32:41.143Z,22.75
2023-01-29T06:33:43.042Z,22.69
2023-01-29T06:34:44.871Z,22.67
2023-01-29T06:35:46.723Z,22.59
2023-01-29T06:36:48.599Z,22.45
2023-01-29T06:37:50.405Z,22.49
2023-01-29T06:38:52.159Z,22.63
2023-01-29T06:39:53.971Z,22.55
2023-01-29T06:40:56.019Z,22.43
2023-01-29T06:41:57.825Z,22.31
2023-01-29T06:43:02.722Z,22.55
2023-01-29T06:44:04.651Z,22.54
2023-01-29T06:45:07.098Z,22.60
2023-01-29T06:46:09.048Z,22.58
2023-01-29T06:47:10.813Z,22.47
2023-01-29T06:48:12.647Z,22.58
2023-01-29T06:49:14.463Z,22.51
2023-01-29T06:50:16.831Z,22.53
2023-01-29T06:51:19.006Z,22.40
2023-01-29T06:52:20.879Z,22.67
2023-01-29T06:53:22.803Z,22.31
2023-01-29T06:54:24.711Z,22.64
2023-01-29T06:55:26.484Z,22.59
2023-01-29T06:56:28.355Z,22.74
2023-01-29T06:57:30.238Z,22.63
2023-01-29T06:58:32.485Z,22.47
2023-01-29T06:59:34.523Z,22.65
2023-01-29T07:00:36.492Z,22.68
2023-01-29T07:01:42.758Z,22.68
2023-01-29T07:02:44.568Z,22.51
2023-01-29T07:03:49.639Z,22.70
2023-01-29T07:04:51.408Z,22.54
2023-01-29T07:05:53.248Z,22.46
2023-01-29T07:06:55.071Z,22.62
2023-01-29T07:07:57.623Z,22.68
2023-01-29T07:08:59.714Z,22.47
2023-01-29T07:10:01.510Z,22.56
2023-01-29T07:11:03.824Z,22.66
2023-01-29T07:12:05.717Z,22.41
2023-01-29T07:13:07.484Z,22.48
2023-01-29T07:14:09.434Z,22.41
2023-01-29T07:15:12.748Z,22.50
2023-01-29T07:16:14.620Z,22.57
2023-01-29T07:17:16.431Z,22.36
2023-01-29T07:18:18.191Z,22.26
2023-01-29T07:19:19.975Z,22.61
2023-01-29T07:20:21.750Z,22.39
2023-01-29T07:21:23.722Z,22.41
2023-01-29T07:22:25.528Z,22.33
2023-01-29T07:23:27.474Z,21.98
2023-01-29T07:24:29.503Z,22.22
2023-01-29T07:25:31.328Z,22.34
2023-01-29T07:26:33.168Z,21.96
2023-01-29T07:27:34.916Z,22.25
2023-01-29T07:28:38.338Z,21.94
2023-01-29T07:29:40.135Z,21.85
2023-01-29T07:30:41.925Z,21.86
2023-01-29T07:31:43.778Z,21.87
2023-01-29T07:32:45.597Z,21.87
2023-01-29T07:33:47.631Z,22.03
2023-01-29T07:34:49.459Z,22.07
2023-01-29T07:35:51.375Z,21.81
2023-01-29T07:36:54.172Z,21.82
2023-01-29T07:37:55.944Z,21.80
2023-01-29T07:38:57.780Z,22.04
2023-01-29T07:39:59.537Z,21.81
2023-01-29T07:41:03.041Z,21.97
2023-01-29T07:42:05.125Z,21.61
2023-01-29T07:43:08.122Z,22.01
2023-01-29T07:44:09.976Z,21.53
2023-01-29T07:45:12.507Z,22.19
2023-01-29T07:46:14.410Z,21.56
2023-01-29T07:47:17.264Z,21.67
2023-01-29T07:48:19.307Z,21.41
2023-01-29T07:49:21.105Z,21.75
2023-01-29T07:50:24.407Z,21.39
2023-01-29T07:51:26.237Z,21.68
2023-01-29T07:52:30.727Z,21.29
2023-01-29T07:53:32.973Z,21.46
2023-01-29T07:54:34.865Z,21.02
2023-01-29T07:55:36.644Z,21.36
2023-01-29T07:56:38.413Z,21.48
2023-01-29T07:57:40.303Z,21.33
2023-01-29T07:58:42.103Z,21.45
2023-01-29T07:59:43.958Z,21.08
2023-01-29T08:00:46.248Z,21.38
2023-01-29T08:01:48.062Z,21.30
2023-01-29T08:02:49.885Z,21.14
2023-01-29T08:03:51.955Z,21.33
2023-01-29T08:04:53.783Z,21.35
2023-01-29T08:05:57.608Z,21.27
2023-01-29T08:06:59.383Z,21.25
2023-01-29T08:08:07.042Z,20.90
2023-01-29T08:09:10.956Z,21.21
2023-01-29T08:10:12.869Z,20.88
2023-01-29T08:11:15.456Z,21.20
2023-01-29T08:12:17.255Z,21.31
2023-01-29T08:13:19.071Z,20.77
2023-01-29T08:14:20.886Z,20.92
2023-01-29T08:15:23.085Z,20.99
2023-01-29T08:16:25.032Z,20.94
2023-01-29T08:17:26.892Z,20.85
2023-01-29T08:18:29.215Z,21.04
2023-01-29T08:19:31.128Z,21.02
2023-01-29T08:20:33.106Z,20.71
2023-01-29T08:21:34.877Z,20.81
2023-01-29T08:22:36.763Z,21.08
2023-01-29T08:23:38.552Z,20.73
2023-01-29T08:24:53.439Z,21.17
2023-01-29T08:26:05.527Z,20.74
2023-01-29T08:27:07.304Z,20.74
2023-01-29T08:28:09.843Z,20.94
2023-01-29T08:29:12.467Z,20.79
2023-01-29T08:30:14.903Z,21.21
2023-01-29T08:31:20.625Z,20.67
2023-01-29T08:32:22.499Z,20.90
2023-01-29T08:33:39.077Z,20.64
2023-01-29T08:34:41.248Z,20.83
2023-01-29T08:35:43.270Z,21.10
2023-01-29T08:36:45.024Z,20.55
2023-01-29T08:38:00.379Z,20.88
2023-01-29T08:39:02.270Z,20.79
2023-01-29T08:40:04.537Z,20.79
2023-01-29T08:41:06.927Z,21.02
2023-01-29T08:42:08.718Z,20.64
2023-01-29T08:43:12.751Z,20.95
2023-01-29T08:44:14.601Z,21.00
2023-01-29T08:45:16.975Z,20.80
2023-01-29T08:46:18.851Z,20.64
2023-01-29T08:47:20.765Z,20.59
2023-01-29T08:48:24.001Z,20.74
2023-01-29T08:49:26.070Z,20.60
2023-01-29T08:50:28.052Z,20.66
2023-01-29T08:51:29.996Z,20.95
2023-01-29T08:52:31.966Z,20.80
2023-01-29T08:53:33.778Z,20.96
2023-01-29T08:54:35.605Z,20.76
2023-01-29T08:55:39.539Z,20.31
2023-01-29T08:56:41.340Z,20.72
2023-01-29T08:57:43.080Z,20.47
2023-01-29T08:58:45.068Z,20.30
2023-01-29T08:59:46.823Z,20.75
2023-01-29T09:00:49.577Z,20.57
2023-01-29T09:01:51.363Z,20.79
2023-01-29T09:02:53.219Z,20.27
2023-01-29T09:03:54.973Z,20.35
2023-01-29T09:04:57.197Z,20.83
2023-01-29T09:05:58.958Z,20.97
2023-01-29T09:07:00.762Z,20.53
2023-01-29T09:08:02.568Z,20.85
2023-01-29T09:09:04.528Z,20.42
2023-01-29T09:10:06.799Z,20.58
2023-01-29T09:11:09.119Z,20.59
2023-01-29T09:12:10.893Z,20.68
2023-01-29T09:13:12.696Z,20.68
2023-01-29T09:14:14.828Z,20.72
2023-01-29T09:15:17.083Z,20.83
2023-01-29T09:16:19.309Z,20.56
2023-01-29T09:17:21.136Z,20.68
2023-01-29T09:18:23.026Z,20.79
2023-01-29T09:19:24.795Z,20.84
2023-01-29T09:20:26.557Z,20.72
2023-01-29T09:21:28.384Z,20.81
2023-01-29T09:22:30.158Z,20.98
2023-01-29T09:23:32.675Z,20.86
2023-01-29T09:24:35.225Z,20.58
2023-01-29T09:25:37.751Z,20.65
2023-01-29T09:26:40.268Z,20.86
2023-01-29T09:27:42.098Z,21.05
2023-01-29T09:28:43.883Z,20.62
2023-01-29T09:29:45.647Z,20.51
2023-01-29T09:30:47.694Z,20.72
2023-01-29T09:31:49.678Z,21.05
2023-01-29T09:32:54.134Z,20.93
2023-01-29T09:33:56.510Z,20.96
2023-01-29T09:34:58.320Z,20.70
2023-01-29T09:36:02.405Z,20.99
2023-01-29T09:37:04.267Z,20.70
2023-01-29T09:38:06.092Z,20.65
2023-01-29T09:39:07.937Z,20.73
2023-01-29T09:40:41.751Z,20.51
2023-01-29T09:42:01.717Z,20.77
2023-01-29T09:43:10.547Z,20.87
2023-01-29T09:44:37.828Z,20.52
2023-01-29T09:45:52.175Z,20.57
2023-01-29T09:46:55.702Z,20.82
2023-01-29T09:48:03.447Z,20.84
2023-01-29T09:49:20.304Z,20.97
2023-01-29T09:50:26.634Z,20.79
2023-01-29T09:51:50.624Z,20.40
2023-01-29T09:52:58.971Z,20.76
2023-01-29T09:54:16.638Z,20.54
2023-01-29T09:55:32.696Z,20.54
2023-01-29T09:56:35.489Z,20.63
2023-01-29T09:57:48.431Z,21.02
2023-01-29T09:58:50.294Z,20.86
2023-01-29T09:59:52.113Z,20.75
2023-01-29T10:00:56.645Z,20.72
2023-01-29T10:02:21.574Z,20.72
2023-01-29T10:03:57.530Z,20.85
2023-01-29T10:05:08.351Z,20.34
2023-01-29T10:06:40.291Z,20.76
2023-01-29T10:08:21.819Z,20.53
2023-01-29T10:09:29.703Z,20.78
2023-01-29T10:10:43.930Z,20.92
2023-01-29T10:12:04.482Z,20.77
2023-01-29T10:13:52.882Z,20.87
2023-01-29T10:16:13.916Z,20.62
2023-01-29T10:17:39.112Z,21.15
2023-01-29T10:19:07.974Z,20.88
2023-01-29T10:20:27.505Z,20.63
2023-01-29T10:21:47.227Z,20.91
2023-01-29T10:23:05.959Z,20.91
2023-01-29T10:24:32.447Z,20.82
2023-01-29T10:25:40.957Z,20.57
2023-01-29T10:26:42.855Z,20.99
2023-01-29T10:27:54.698Z,20.98
2023-01-29T10:28:58.867Z,20.75
2023-01-29T10:30:03.639Z,20.87
2023-01-29T10:31:16.224Z,20.89
2023-01-29T10:32:20.991Z,21.14
2023-01-29T10:34:01.003Z,21.20
2023-01-29T10:35:21.595Z,20.63
2023-01-29T10:36:28.765Z,20.93
2023-01-29T10:37:41.842Z,21.07
2023-01-29T10:38:46.148Z,21.08
2023-01-29T10:39:47.989Z,21.25
2023-01-29T10:40:57.195Z,21.24
2023-01-29T10:42:13.488Z,21.18
2023-01-29T10:43:29.679Z,20.76
2023-01-29T10:44:58.466Z,21.12
2023-01-29T10:46:12.299Z,20.67
2023-01-29T10:47:52.682Z,21.17
2023-01-29T10:49:08.629Z,21.08
2023-01-29T10:50:22.508Z,20.85
2023-01-29T10:51:52.498Z,21.15
2023-01-29T10:53:20.635Z,21.16
2023-01-29T10:54:51.585Z,20.92
2023-01-29T10:56:14.133Z,20.92
2023-01-29T10:58:07.491Z,21.06
2023-01-29T10:59:26.179Z,20.59
2023-01-29T11:00:38.190Z,21.17
2023-01-29T11:01:40.086Z,20.94
2023-01-29T11:02:48.313Z,20.82
2023-01-29T11:04:01.863Z,21.02
2023-01-29T11:05:03.826Z,21.01
2023-01-29T11:06:31.577Z,21.12
2023-01-29T11:07:33.416Z,21.02
2023-01-29T11:08:42.611Z,21.09
2023-01-29T11:09:50.693Z,20.96
2023-01-29T11:11:22.014Z,20.64
2023-01-29T11:12:30.734Z,21.32
2023-01-29T11:13:38.198Z,21.20
2023-01-29T11:14:51.775Z,20.78
2023-01-29T11:15:53.911Z,20.88
2023-01-29T11:16:56.359Z,21.02
2023-01-29T11:18:14.254Z,21.00
2023-01-29T11:19:16.895Z,21.28
2023-01-29T11:20:28.897Z,21.24
2023-01-29T11:21:30.785Z,21.21
2023-01-29T11:22:32.597Z,21.15
2023-01-29T11:23:34.478Z,21.01
2023-01-29T11:24:36.242Z,20.82
2023-01-29T11:25:38.065Z,21.13
2023-01-29T11:26:42.407Z,21.21
2023-01-29T11:27:47.815Z,21.25
2023-01-29T11:28:51.442Z,21.55
2023-01-29T11:29:54.155Z,21.30
2023-01-29T11:30:57.382Z,20.88
2023-01-29T11:32:03.226Z,20.91
2023-01-29T11:33:18.279Z,21.27
2023-01-29T11:34:22.966Z,21.27
2023-01-29T11:35:26.067Z,21.11
2023-01-29T11:36:37.148Z,21.05
2023-01-29T11:37:41.654Z,20.93
2023-01-29T11:38:43.442Z,21.11
2023-01-29T11:39:49.077Z,20.83
2023-01-29T11:40:51.136Z,20.83
2023-01-29T11:41:55.787Z,20.99
2023-01-29T11:43:12.980Z,21.21
2023-01-29T11:44:31.498Z,21.04
2023-01-29T11:45:34.919Z,21.12
2023-01-29T11:46:39.993Z,21.22
2023-01-29T11:47:42.061Z,20.87
2023-01-29T11:48:59.126Z,21.17
2023-01-29T11:50:20.213Z,21.13
2023-01-29T11:51:28.764Z,20.91
2023-01-29T11:52:42.507Z,20.97
2023-01-29T11:53:49.581Z,20.81
2023-01-29T11:55:04.472Z,21.09
2023-01-29T11:56:22.248Z,20.70
2023-01-29T11:57:46.715Z,20.88
2023-01-29T11:58:50.154Z,20.69
2023-01-29T11:59:53.839Z,20.86
2023-01-29T12:00:57.447Z,21.27
2023-01-29T12:02:11.685Z,21.33
2023-01-29T12:03:36.976Z,20.85
2023-01-29T12:04:40.128Z,21.07
2023-01-29T12:05:57.891Z,21.23
2023-01-29T12:06:59.788Z,21.09
2023-01-29T12:08:02.760Z,21.21
2023-01-29T12:09:16.124Z,21.22
2023-01-29T12:10:39.555Z,20.89
2023-01-29T12:11:41.693Z,21.12
2023-01-29T12:12:43.525Z,21.13
2023-01-29T12:13:55.767Z,21.08
2023-01-29T12:15:21.948Z,20.92
2023-01-29T12:16:58.023Z,21.38
2023-01-29T12:18:05.997Z,20.93
2023-01-29T12:19:17.091Z,20.88
2023-01-29T12:20:25.787Z,21.18
2023-01-29T12:21:36.967Z,21.25
2023-01-29T12:22:50.652Z,20.96
2023-01-29T12:23:59.295Z,21.23
2023-01-29T12:25:16.529Z,21.38
2023-01-29T12:26:25.740Z,21.13
2023-01-29T12:27:51.302Z,21.01
2023-01-29T12:29:25.157Z,21.17
2023-01-29T12:30:40.460Z,21.14
2023-01-29T12:32:26.528Z,21.30
2023-01-29T12:33:43.681Z,21.16
2023-01-29T12:34:50.818Z,21.16
2023-01-29T12:36:04.288Z,21.20
2023-01-29T12:37:24.163Z,20.85
2023-01-29T12:38:26.760Z,20.98
2023-01-29T12:39:28.790Z,21.19
2023-01-29T12:40:46.864Z,21.17
2023-01-29T12:41:59.999Z,20.84
2023-01-29T12:43:07.208Z,20.97
2023-01-29T12:44:20.930Z,21.40
2023-01-29T12:45:25.224Z,21.60
2023-01-29T12:46:44.223Z,21.22
2023-01-29T12:47:51.042Z,21.05
2023-01-29T12:48:55.877Z,21.17
2023-01-29T12:50:03.659Z,21.31
2023-01-29T12:51:14.363Z,20.92
2023-01-29T12:52:34.263Z,21.26
2023-01-29T12:53:44.725Z,21.31
2023-01-29T12:55:00.665Z,21.14
2023-01-29T12:56:26.945Z,21.35
2023-01-29T12:57:34.483Z,20.94
2023-01-29T12:58:47.657Z,21.34
2023-01-29T13:00:00.929Z,21.40
2023-01-29T13:01:16.111Z,21.29
2023-01-29T13:02:33.860Z,21.25
2023-01-29T13:04:06.603Z,21.07
2023-01-29T13:05:39.146Z,20.89
2023-01-29T13:06:46.523Z,21.15
2023-01-29T13:07:58.288Z,21.13
2023-01-29T13:09:15.012Z,21.30
2023-01-29T13:10:24.632Z,21.10
2023-01-29T13:11:35.536Z,21.18
2023-01-29T13:12:40.206Z,21.37
2023-01-29T13:13:54.032Z,21.18
2023-01-29T13:15:04.076Z,21.00
2023-01-29T13:16:12.642Z,21.07
2023-01-29T13:17:32.453Z,21.51
2023-01-29T13:18:50.824Z,21.03
2023-01-29T13:20:00.863Z,21.25
2023-01-29T13:21:04.457Z,21.54
2023-01-29T13:22:19.648Z,21.35
2023-01-29T13:23:28.542Z,21.39
2023-01-29T13:24:39.497Z,21.21
2023-01-29T13:25:41.507Z,21.07
2023-01-29T13:26:47.874Z,21.43
2023-01-29T13:27:50.420Z,21.21
2023-01-29T13:28:53.154Z,21.74
2023-01-29T13:29:56.283Z,21.06
2023-01-29T13:31:20.755Z,21.57
2023-01-29T13:32:28.345Z,21.15
2023-01-29T13:33:30.177Z,21.14
2023-01-29T13:34:37.064Z,21.14
2023-01-29T13:35:43.297Z,21.21
2023-01-29T13:36:48.573Z,21.33
2023-01-29T13:37:53.310Z,21.35
2023-01-29T13:39:07.899Z,21.51
2023-01-29T13:40:23.219Z,21.03
2023-01-29T13:41:33.545Z,21.67
2023-01-29T13:42:48.129Z,21.22
2023-01-29T13:43:50.518Z,21.37
2023-01-29T13:45:00.768Z,21.30
2023-01-29T13:46:13.230Z,21.45
2023-01-29T13:47:25.679Z,21.53
2023-01-29T13:48:32.031Z,21.10
2023-01-29T13:49:52.681Z,21.30
2023-01-29T13:51:02.280Z,21.07
2023-01-29T13:52:30.074Z,21.46
2023-01-29T13:53:38.255Z,21.40
2023-01-29T13:54:40.281Z,21.45
2023-01-29T13:55:42.147Z,21.74
2023-01-29T13:56:59.609Z,21.50
2023-01-29T13:58:15.946Z,21.46
2023-01-29T13:59:45.079Z,21.16
2023-01-29T14:00:50.595Z,21.09
2023-01-29T14:01:52.331Z,21.11
2023-01-29T14:03:00.168Z,21.22
2023-01-29T14:04:22.987Z,21.31
2023-01-29T14:05:30.672Z,21.27
2023-01-29T14:06:40.501Z,21.30
2023-01-29T14:07:45.060Z,21.57
2023-01-29T14:08:47.552Z,21.63
2023-01-29T14:09:49.346Z,21.53
2023-01-29T14:11:16.944Z,21.61
2023-01-29T14:12:21.771Z,21.25
2023-01-29T14:13:27.998Z,21.52
2023-01-29T14:14:48.174Z,21.58
2023-01-29T14:15:58.918Z,21.52
2023-01-29T14:17:03.887Z,21.34
2023-01-29T14:18:16.212Z,21.46
2023-01-29T14:19:19.408Z,21.38
2023-01-29T14:20:32.229Z,21.76
2023-01-29T14:21:37.821Z,21.69
2023-01-29T14:22:40.669Z,21.33
2023-01-29T14:23:46.230Z,21.73
2023-01-29T14:24:48.943Z,21.57
2023-01-29T14:25:51.266Z,21.68
2023-01-29T14:26:56.555Z,21.75
2023-01-29T14:28:01.509Z,21.67
2023-01-29T14:29:14.507Z,21.79
2023-01-29T14:30:19.296Z,21.42
2023-01-29T14:31:47.474Z,21.55
2023-01-29T14:32:54.142Z,21.58
2023-01-29T14:34:01.160Z,21.53
2023-01-29T14:35:10.281Z,21.66
2023-01-29T14:36:15.865Z,21.67
2023-01-29T14:37:19.019Z,21.82
2023-01-29T14:38:23.668Z,21.46
2023-01-29T14:39:30.066Z,21.86
2023-01-29T14:40:32.715Z,22.03
2023-01-29T14:41:36.368Z,21.60
2023-01-29T14:42:44.348Z,21.85